This is the latest recevied weather packets stored in our database for station/object KG7DQI-13. If no packets are shown the sender has not sent any weather packets the latest 10 day(s).
| Time | Temp. | Humidity | Pressure | Rain* | Wind** | Luminosity | Snow |
|---|---|---|---|---|---|---|---|
| 1788553925 | 15.56° C | 51% | 912.3 hPa | 0 mm | - | 884 W/m² | - |
| 1788553015 | 15.56° C | 52% | 912.4 hPa | 0 mm | - | 483 W/m² | - |
| 1788552150 | 15° C | 58% | 912.3 hPa | 0 mm | - | 499 W/m² | - |
| 1788550392 | 14.44° C | 57% | 912.6 hPa | 0 mm | - | 366 W/m² | - |
| 1788549543 | 13.89° C | 58% | 912.6 hPa | 0 mm | - | 390 W/m² | - |
| 1788546785 | 14.44° C | 58% | 912.5 hPa | 0 mm | - | 265 W/m² | - |
| 1788545920 | 14.44° C | 58% | 912.3 hPa | 0 mm | - | 193 W/m² | - |
| 1788544123 | 13.89° C | 60% | 912.4 hPa | 0 mm | - | 251 W/m² | - |
| 1788543264 | 12.78° C | 66% | 912.3 hPa | 0 mm | - | 383 W/m² | - |
| 1788541486 | 12.22° C | 67% | 912.5 hPa | 0 mm | - | 330 W/m² | - |
| 1788539686 | 10.56° C | 72% | 911.9 hPa | 0 mm | - | 163 W/m² | - |
| 1788537858 | 10.56° C | 73% | 911.8 hPa | 0 mm | - | 151 W/m² | - |
| 1788536984 | 10° C | 74% | 911.6 hPa | 0 mm | - | 151 W/m² | - |
| 1788536095 | 10° C | 75% | 911.8 hPa | 0 mm | - | 109 W/m² | - |
| 1788535152 | 9.44° C | 77% | 911.7 hPa | 0 mm | - | 81 W/m² | - |
| 1788534242 | 8.89° C | 81% | 911.5 hPa | 0 mm | - | 97 W/m² | - |
| 1788533372 | 7.22° C | 85% | 911.4 hPa | 0 mm | - | 211 W/m² | - |
| 1788532435 | 5.56° C | 88% | 911.4 hPa | 0 mm | - | 127 W/m² | - |
| 1788531548 | 4.44° C | 90% | 911.2 hPa | 0 mm | - | 81 W/m² | - |
| 1788530644 | 3.89° C | 89% | 911 hPa | 0 mm | - | 18 W/m² | - |
| 1788528748 | 5° C | 87% | 910.8 hPa | 0 mm | - | 0 W/m² | - |
| 1788527875 | 5.56° C | 87% | 910.7 hPa | 0 mm | - | 0 W/m² | - |
| 1788526953 | 5.56° C | 87% | 910.6 hPa | 0 mm | - | 0 W/m² | - |
| 1788526082 | 5° C | 88% | 910.7 hPa | 0 mm | - | 0 W/m² | - |
| 1788525153 | 5° C | 88% | 910.6 hPa | 0 mm | - | 0 W/m² | - |
* Rain latest hour (hover to see other rain measurements)
** Current wind speed in m/s (hover to see current wind gust speed)